createdAt,value
2018-02-10T00:02:17.791Z,10.77
2018-02-10T00:04:44.662Z,11.00
2018-02-10T00:07:12.519Z,9.83
2018-02-10T00:09:38.986Z,10.87
2018-02-10T00:12:05.371Z,10.23
2018-02-10T00:14:31.816Z,11.27
2018-02-10T00:16:58.176Z,10.33
2018-02-10T00:19:24.532Z,10.27
2018-02-10T00:21:50.909Z,10.77
2018-02-10T00:24:17.408Z,11.37
2018-02-10T00:26:43.760Z,10.80
2018-02-10T00:29:10.196Z,11.37
2018-02-10T00:31:36.546Z,11.17
2018-02-10T00:34:02.948Z,11.50
2018-02-10T00:36:29.360Z,11.07
2018-02-10T00:38:55.757Z,12.00
2018-02-10T00:41:22.115Z,11.47
2018-02-10T00:43:48.536Z,11.43
2018-02-10T00:46:14.925Z,11.57
2018-02-10T00:48:41.268Z,11.47
2018-02-10T00:51:07.689Z,12.07
2018-02-10T00:53:34.029Z,13.50
2018-02-10T00:56:00.384Z,11.90
2018-02-10T00:58:26.782Z,11.30
2018-02-10T01:00:53.259Z,11.33
2018-02-10T01:03:19.608Z,11.80
2018-02-10T01:05:46.003Z,11.03
2018-02-10T01:08:12.376Z,11.03
2018-02-10T01:10:38.792Z,11.10
2018-02-10T01:13:05.188Z,11.33
2018-02-10T01:15:31.552Z,10.93
2018-02-10T01:17:57.896Z,11.73
2018-02-10T01:20:24.313Z,12.40
2018-02-10T01:22:50.688Z,12.37
2018-02-10T01:25:17.121Z,12.60
2018-02-10T01:27:43.517Z,12.50
2018-02-10T01:30:09.873Z,12.17
2018-02-10T01:32:36.237Z,12.13
2018-02-10T01:35:02.644Z,12.83
2018-02-10T01:37:28.988Z,14.13
2018-02-10T01:39:55.370Z,12.07
2018-02-10T01:42:21.777Z,12.07
2018-02-10T01:44:48.134Z,13.73
2018-02-10T01:47:14.692Z,13.43
2018-02-10T01:49:41.101Z,13.23
2018-02-10T01:52:07.492Z,12.80
2018-02-10T01:54:33.950Z,13.73
2018-02-10T01:57:00.340Z,14.07
2018-02-10T01:59:26.697Z,14.73
2018-02-10T02:01:53.081Z,14.10
2018-02-10T02:04:19.429Z,13.13
2018-02-10T02:06:45.800Z,13.90
2018-02-10T02:09:12.238Z,14.23
2018-02-10T02:11:38.616Z,14.40
2018-02-10T02:14:05.024Z,13.73
2018-02-10T02:16:31.433Z,11.93
2018-02-10T02:18:57.792Z,14.13
2018-02-10T02:21:24.142Z,13.53
2018-02-10T02:23:50.548Z,13.63
2018-02-10T02:26:17.012Z,14.00
2018-02-10T02:28:43.372Z,15.13
2018-02-10T02:31:09.755Z,13.90
2018-02-10T02:33:36.103Z,13.83
2018-02-10T02:36:02.488Z,13.80
2018-02-10T02:38:28.894Z,13.93
2018-02-10T02:40:55.233Z,13.20
2018-02-10T02:43:21.572Z,14.43
2018-02-10T02:45:48.000Z,13.47
2018-02-10T02:48:14.364Z,13.37
2018-02-10T02:50:40.697Z,13.57
2018-02-10T02:53:07.060Z,12.93
2018-02-10T02:55:33.413Z,13.83
2018-02-10T02:57:59.801Z,13.13
2018-02-10T03:00:26.176Z,12.57
2018-02-10T03:02:52.529Z,12.77
2018-02-10T03:05:18.931Z,13.60
2018-02-10T03:07:45.280Z,13.40
2018-02-10T03:10:11.613Z,13.83
2018-02-10T03:12:38.027Z,13.00
2018-02-10T03:15:04.397Z,14.17
2018-02-10T03:17:30.740Z,13.67
2018-02-10T03:19:57.148Z,13.43
2018-02-10T03:22:23.492Z,13.53
2018-02-10T03:24:49.975Z,12.17
2018-02-10T03:27:16.361Z,13.37
2018-02-10T03:29:42.707Z,11.60
2018-02-10T03:32:09.184Z,12.93
2018-02-10T03:34:35.524Z,13.00
2018-02-10T03:37:01.864Z,12.60
2018-02-10T03:39:28.240Z,12.90
2018-02-10T03:41:54.631Z,12.93
2018-02-10T03:44:21.033Z,12.23
2018-02-10T03:46:47.420Z,13.30
2018-02-10T03:49:13.764Z,12.73
2018-02-10T03:51:40.104Z,13.67
2018-02-10T03:54:06.488Z,14.03
2018-02-10T03:56:32.876Z,13.83
2018-02-10T03:58:59.304Z,13.03
2018-02-10T04:01:25.716Z,12.80
2018-02-10T04:03:52.064Z,12.83
2018-02-10T04:06:18.523Z,12.17
2018-02-10T04:08:45.046Z,12.97
2018-02-10T04:11:11.375Z,13.40
2018-02-10T04:13:37.718Z,12.93
2018-02-10T04:16:04.068Z,13.50
2018-02-10T04:18:30.414Z,11.87
2018-02-10T04:20:56.800Z,13.50
2018-02-10T04:23:23.141Z,13.17
2018-02-10T04:25:49.453Z,13.70
2018-02-10T04:28:15.834Z,12.40
2018-02-10T04:30:42.173Z,12.53
2018-02-10T04:33:08.501Z,13.17
2018-02-10T04:35:34.853Z,13.90
2018-02-10T04:38:01.284Z,14.70
2018-02-10T04:40:27.609Z,14.43
2018-02-10T04:42:53.942Z,14.67
2018-02-10T04:45:20.293Z,14.40
2018-02-10T04:47:46.689Z,14.97
2018-02-10T04:50:13.025Z,14.77
2018-02-10T04:52:39.565Z,16.47
2018-02-10T04:55:05.896Z,14.53
2018-02-10T04:57:32.268Z,16.90
2018-02-10T04:59:58.641Z,16.20
2018-02-10T05:02:24.977Z,16.97
2018-02-10T05:04:51.360Z,17.93
2018-02-10T05:07:17.716Z,21.27
2018-02-10T05:09:44.032Z,20.10
2018-02-10T05:12:10.478Z,20.73
2018-02-10T05:14:36.862Z,20.40
2018-02-10T05:17:03.265Z,20.27
2018-02-10T05:19:29.667Z,21.53
2018-02-10T05:21:55.996Z,21.77
2018-02-10T05:24:22.385Z,23.17
2018-02-10T05:26:48.936Z,23.33
2018-02-10T05:29:15.249Z,23.80
2018-02-10T05:31:41.569Z,21.97
2018-02-10T05:34:07.949Z,23.07
2018-02-10T05:36:34.404Z,22.97
2018-02-10T05:39:00.776Z,22.83
2018-02-10T05:41:27.153Z,24.73
2018-02-10T05:43:53.486Z,27.07
2018-02-10T05:46:19.831Z,29.00
2018-02-10T05:48:46.221Z,29.07
2018-02-10T05:51:12.616Z,30.23
2018-02-10T05:53:38.958Z,31.93
2018-02-10T05:56:05.316Z,31.57
2018-02-10T05:58:31.676Z,32.27
2018-02-10T06:00:58.122Z,31.47
2018-02-10T06:03:24.496Z,33.40
2018-02-10T06:05:50.989Z,33.77
2018-02-10T06:08:17.320Z,35.47
2018-02-10T06:10:43.771Z,35.87
2018-02-10T06:13:10.141Z,35.63
2018-02-10T06:15:36.517Z,35.57
2018-02-10T06:18:02.930Z,37.50
2018-02-10T06:20:29.292Z,37.13
2018-02-10T06:22:55.716Z,36.80
2018-02-10T06:25:22.064Z,35.70
2018-02-10T06:27:48.452Z,35.67
2018-02-10T06:30:14.778Z,33.33
2018-02-10T06:32:41.168Z,33.43
2018-02-10T06:35:07.570Z,34.83
2018-02-10T06:37:33.905Z,35.03
2018-02-10T06:40:00.276Z,32.90
2018-02-10T06:42:26.714Z,32.77
2018-02-10T06:44:53.137Z,30.63
2018-02-10T06:47:19.556Z,30.17
2018-02-10T06:49:46.057Z,31.87
2018-02-10T06:52:12.552Z,32.77
2018-02-10T06:54:38.966Z,41.87
2018-02-10T06:57:05.301Z,41.27
2018-02-10T06:59:31.684Z,45.00
2018-02-10T07:01:58.053Z,36.03
2018-02-10T07:04:24.403Z,32.10
2018-02-10T07:06:50.750Z,29.93
2018-02-10T07:09:17.206Z,31.60
2018-02-10T07:11:43.573Z,29.10
2018-02-10T07:14:09.921Z,28.83
2018-02-10T07:16:36.381Z,30.40
2018-02-10T07:19:02.784Z,32.37
2018-02-10T07:21:29.132Z,31.27
2018-02-10T07:23:55.625Z,32.53
2018-02-10T07:26:22.033Z,31.93
2018-02-10T07:28:48.432Z,30.73
2018-02-10T07:31:14.801Z,30.80
2018-02-10T07:33:41.193Z,29.13
2018-02-10T07:36:07.565Z,34.03
2018-02-10T07:38:33.963Z,32.43
2018-02-10T07:41:00.479Z,33.60
2018-02-10T07:43:27.921Z,32.53
2018-02-10T07:45:54.324Z,31.00
2018-02-10T07:48:20.817Z,33.67
2018-02-10T07:50:47.380Z,32.80
2018-02-10T07:53:13.688Z,30.43
2018-02-10T07:55:40.133Z,32.93
2018-02-10T07:58:07.595Z,33.87
2018-02-10T08:00:34.603Z,32.20
2018-02-10T08:03:01.160Z,33.87
2018-02-10T08:05:27.508Z,34.37
2018-02-10T08:07:55.523Z,31.80
2018-02-10T08:10:22.192Z,32.33
2018-02-10T08:12:48.920Z,32.33
2018-02-10T08:15:16.286Z,34.83
2018-02-10T08:17:42.796Z,33.93
2018-02-10T08:20:09.179Z,35.03
2018-02-10T08:22:35.553Z,34.53
2018-02-10T08:25:02.046Z,34.87
2018-02-10T08:27:28.377Z,34.20
2018-02-10T08:29:54.752Z,33.03
2018-02-10T08:32:21.106Z,34.27
2018-02-10T08:34:47.491Z,29.57
2018-02-10T08:37:13.826Z,31.50
2018-02-10T08:39:40.209Z,32.20
2018-02-10T08:42:06.669Z,34.13
2018-02-10T08:44:33.033Z,35.47
2018-02-10T08:46:59.375Z,33.97
2018-02-10T08:49:25.840Z,32.23
2018-02-10T08:51:52.717Z,31.03
2018-02-10T08:54:19.108Z,31.70
2018-02-10T08:56:45.858Z,28.73
2018-02-10T08:59:14.181Z,30.50
2018-02-10T09:01:40.775Z,29.30
2018-02-10T09:04:07.241Z,25.47
2018-02-10T09:06:33.593Z,29.77
2018-02-10T09:08:59.921Z,33.90
2018-02-10T09:11:26.302Z,39.10
2018-02-10T09:13:52.680Z,38.47
2018-02-10T09:16:19.163Z,37.73
2018-02-10T09:18:45.536Z,44.47
2018-02-10T09:21:11.874Z,49.07
2018-02-10T09:23:38.206Z,58.07
2018-02-10T09:26:04.555Z,58.93
2018-02-10T09:28:31.132Z,54.07
2018-02-10T09:30:57.469Z,58.37
2018-02-10T09:33:23.836Z,61.80
2018-02-10T09:35:50.267Z,66.57
2018-02-10T09:38:16.653Z,60.87
2018-02-10T09:40:43.141Z,64.37
2018-02-10T09:43:09.521Z,57.80
2018-02-10T09:45:35.844Z,59.40
2018-02-10T09:48:02.186Z,56.23
2018-02-10T09:50:28.607Z,50.63
2018-02-10T09:52:54.945Z,49.70
2018-02-10T09:55:21.278Z,47.60
2018-02-10T09:57:47.656Z,50.80
2018-02-10T10:00:13.993Z,55.07
2018-02-10T10:02:40.358Z,51.40
2018-02-10T10:05:06.753Z,51.37
2018-02-10T10:07:33.128Z,49.90
2018-02-10T10:09:59.473Z,55.27
2018-02-10T10:12:25.826Z,52.63
2018-02-10T10:14:52.203Z,51.17
2018-02-10T10:17:18.589Z,51.90
2018-02-10T10:19:44.953Z,55.47
2018-02-10T10:22:11.293Z,51.37
2018-02-10T10:24:37.685Z,52.77
2018-02-10T10:27:04.036Z,49.13
2018-02-10T10:29:30.391Z,50.50
2018-02-10T10:31:56.741Z,49.87
2018-02-10T10:34:23.132Z,48.73
2018-02-10T10:36:49.489Z,50.47
2018-02-10T10:39:15.821Z,46.20
2018-02-10T10:41:42.216Z,46.37
2018-02-10T10:44:08.603Z,48.83
2018-02-10T10:46:34.953Z,42.93
2018-02-10T10:49:01.320Z,36.40
2018-02-10T10:51:27.684Z,39.50
2018-02-10T10:53:54.216Z,40.90
2018-02-10T10:56:20.552Z,43.17
2018-02-10T10:58:47.183Z,38.07
2018-02-10T11:01:13.669Z,40.47
2018-02-10T11:03:39.956Z,38.77
2018-02-10T11:06:06.320Z,41.97
2018-02-10T11:08:39.653Z,41.57
2018-02-10T11:11:06.043Z,48.43
2018-02-10T11:13:32.572Z,47.63
2018-02-10T11:15:58.952Z,49.97
2018-02-10T11:18:25.365Z,51.73
2018-02-10T11:20:51.829Z,50.07
2018-02-10T11:23:18.170Z,40.87
2018-02-10T11:25:44.511Z,46.23
2018-02-10T11:28:10.924Z,55.27
2018-02-10T11:30:37.261Z,51.43
2018-02-10T11:33:03.580Z,52.83
2018-02-10T11:35:29.960Z,47.23
2018-02-10T11:37:56.317Z,45.50
2018-02-10T11:40:22.665Z,43.87
2018-02-10T11:42:49.056Z,41.37
2018-02-10T11:45:15.438Z,38.80
2018-02-10T11:47:41.788Z,35.33
2018-02-10T11:50:08.160Z,37.87
2018-02-10T11:52:34.506Z,39.63
2018-02-10T11:55:00.921Z,41.83
2018-02-10T11:57:27.340Z,49.17
2018-02-10T11:59:53.712Z,50.93
2018-02-10T12:02:20.060Z,52.63
2018-02-10T12:04:46.436Z,55.73
2018-02-10T12:07:12.775Z,58.60
2018-02-10T12:09:39.154Z,60.20
2018-02-10T12:12:05.480Z,78.93
2018-02-10T12:14:31.816Z,99.60
2018-02-10T12:16:58.304Z,95.13
2018-02-10T12:19:24.731Z,91.07
2018-02-10T12:21:51.065Z,96.20
2018-02-10T12:24:17.673Z,97.63
2018-02-10T12:26:44.148Z,86.20
2018-02-10T12:29:10.524Z,82.67
2018-02-10T12:31:36.925Z,77.37
2018-02-10T12:34:03.284Z,69.50
2018-02-10T12:36:29.677Z,58.40
2018-02-10T12:38:56.126Z,50.57
2018-02-10T12:41:22.492Z,46.27
2018-02-10T12:43:48.843Z,42.53
2018-02-10T12:46:15.337Z,44.90
2018-02-10T12:48:47.853Z,37.97
2018-02-10T12:51:14.209Z,41.60
2018-02-10T12:53:41.767Z,36.93
2018-02-10T12:56:08.245Z,36.17
2018-02-10T12:58:34.577Z,39.47
2018-02-10T13:01:00.974Z,39.37
2018-02-10T13:03:27.469Z,37.83
2018-02-10T13:05:54.085Z,37.17
2018-02-10T13:08:20.624Z,36.77
2018-02-10T13:10:47.213Z,37.10
2018-02-10T13:13:13.665Z,36.43
2018-02-10T13:15:40.065Z,40.53
2018-02-10T13:18:06.631Z,46.77
2018-02-10T13:20:33.078Z,48.00
2018-02-10T13:22:59.480Z,46.53
2018-02-10T13:25:25.912Z,47.83
2018-02-10T13:27:52.410Z,49.77
2018-02-10T13:30:18.826Z,50.17
2018-02-10T13:32:45.283Z,51.43
2018-02-10T13:35:11.612Z,50.10
2018-02-10T13:37:37.996Z,52.50
2018-02-10T13:40:04.461Z,53.90
2018-02-10T13:42:30.809Z,54.90
2018-02-10T13:44:57.248Z,55.73
2018-02-10T13:47:23.697Z,49.20
2018-02-10T13:49:50.153Z,44.03
2018-02-10T13:52:16.597Z,39.07
2018-02-10T13:54:43.053Z,36.87
2018-02-10T13:57:10.368Z,38.40
2018-02-10T13:59:36.809Z,34.27
2018-02-10T14:02:03.253Z,34.83
2018-02-10T14:04:29.696Z,37.23
2018-02-10T14:06:56.386Z,36.00
2018-02-10T14:09:22.884Z,33.93
2018-02-10T14:11:49.416Z,37.07
2018-02-10T14:14:16.976Z,34.63
2018-02-10T14:16:43.372Z,35.87
2018-02-10T14:19:09.745Z,35.10
2018-02-10T14:21:36.255Z,37.73
2018-02-10T14:24:02.953Z,36.43
2018-02-10T14:26:29.361Z,36.17
2018-02-10T14:28:55.765Z,35.60
2018-02-10T14:31:22.193Z,33.77
2018-02-10T14:33:48.573Z,39.67
2018-02-10T14:36:14.940Z,43.27
2018-02-10T14:38:41.373Z,41.70
2018-02-10T14:41:07.749Z,44.73
2018-02-10T14:43:34.145Z,47.93
2018-02-10T14:46:00.625Z,49.77
2018-02-10T14:48:27.036Z,47.10
2018-02-10T14:50:53.425Z,47.23
2018-02-10T14:53:19.858Z,44.00
2018-02-10T14:55:46.305Z,41.60
2018-02-10T14:58:12.628Z,39.47
2018-02-10T15:00:39.084Z,38.23
2018-02-10T15:03:05.443Z,29.50
2018-02-10T15:05:31.844Z,29.83
2018-02-10T15:07:58.244Z,32.37
2018-02-10T15:10:24.645Z,41.73
2018-02-10T15:12:51.344Z,40.03
2018-02-10T15:15:17.916Z,43.17
2018-02-10T15:17:44.249Z,34.83
2018-02-10T15:20:10.660Z,32.87
2018-02-10T15:22:37.090Z,31.57
2018-02-10T15:25:03.629Z,32.17
2018-02-10T15:27:30.224Z,37.40
2018-02-10T15:30:08.953Z,33.67
2018-02-10T15:32:47.521Z,34.20
2018-02-10T15:35:13.945Z,24.90
2018-02-10T15:37:40.250Z,29.70
2018-02-10T15:40:06.662Z,25.20
2018-02-10T15:42:33.114Z,24.87
2018-02-10T15:45:00.631Z,24.50
2018-02-10T15:47:27.001Z,23.23
2018-02-10T15:49:53.352Z,23.10
2018-02-10T15:52:19.818Z,23.13
2018-02-10T15:54:46.321Z,25.30
2018-02-10T15:57:12.701Z,25.37
2018-02-10T15:59:39.146Z,22.83
2018-02-10T16:02:05.521Z,27.17
2018-02-10T16:04:31.897Z,22.97
2018-02-10T16:06:58.390Z,22.77
2018-02-10T16:09:24.802Z,20.83
2018-02-10T16:11:51.197Z,21.20
2018-02-10T16:14:17.656Z,20.50
2018-02-10T16:16:44.024Z,20.47
2018-02-10T16:19:10.497Z,22.93
2018-02-10T16:21:36.942Z,21.17
2018-02-10T16:24:03.374Z,22.57
2018-02-10T16:26:29.793Z,24.03
2018-02-10T16:28:56.257Z,23.17
2018-02-10T16:31:22.625Z,26.37
2018-02-10T16:33:49.017Z,26.07
2018-02-10T16:36:15.437Z,21.77
2018-02-10T16:38:41.813Z,20.00
2018-02-10T16:41:08.214Z,23.83
2018-02-10T16:43:34.593Z,25.80
2018-02-10T16:46:01.009Z,24.70
2018-02-10T16:48:27.407Z,27.67
2018-02-10T16:50:53.753Z,20.50
2018-02-10T16:53:20.240Z,24.40
2018-02-10T16:55:46.703Z,27.13
2018-02-10T16:58:13.111Z,24.53
2018-02-10T17:00:39.468Z,22.30
2018-02-10T17:03:05.941Z,21.53
2018-02-10T17:05:32.410Z,19.80
2018-02-10T17:07:58.833Z,17.40
2018-02-10T17:10:25.194Z,21.30
2018-02-10T17:12:51.597Z,20.70
2018-02-10T17:15:18.067Z,18.30
2018-02-10T17:17:44.441Z,17.83
2018-02-10T17:20:10.903Z,17.83
2018-02-10T17:22:37.414Z,17.57
2018-02-10T17:25:03.908Z,19.57
2018-02-10T17:27:30.300Z,18.70
2018-02-10T17:29:56.660Z,18.13
2018-02-10T17:32:23.094Z,18.40
2018-02-10T17:34:49.515Z,16.70
2018-02-10T17:37:15.851Z,18.77
2018-02-10T17:39:42.327Z,18.30
2018-02-10T17:42:08.737Z,17.23
2018-02-10T17:44:35.129Z,16.90
2018-02-10T17:47:01.543Z,19.07
2018-02-10T17:49:27.932Z,20.07
2018-02-10T17:51:54.386Z,22.73
2018-02-10T17:54:20.940Z,18.70
2018-02-10T17:56:47.422Z,20.93
2018-02-10T17:59:13.826Z,19.80
2018-02-10T18:01:40.246Z,18.07
2018-02-10T18:04:06.652Z,19.43
2018-02-10T18:06:33.008Z,19.13
2018-02-10T18:08:59.488Z,17.50
2018-02-10T18:11:25.860Z,17.43
2018-02-10T18:13:52.289Z,18.47
2018-02-10T18:16:18.760Z,18.43
2018-02-10T18:18:45.147Z,19.10
2018-02-10T18:21:11.632Z,18.10
2018-02-10T18:23:38.073Z,17.83
2018-02-10T18:26:04.413Z,18.43
2018-02-10T18:28:30.876Z,19.17
2018-02-10T18:30:58.186Z,17.07
2018-02-10T18:33:24.602Z,18.60
2018-02-10T18:35:51.770Z,20.03
2018-02-10T18:38:18.510Z,20.30
2018-02-10T18:40:44.919Z,19.97
2018-02-10T18:43:11.403Z,19.50
2018-02-10T18:45:38.457Z,18.27
2018-02-10T18:48:04.807Z,16.33
2018-02-10T18:50:31.190Z,17.37
2018-02-10T18:52:57.593Z,16.97
2018-02-10T18:55:24.131Z,18.33
2018-02-10T18:57:50.507Z,16.13
2018-02-10T19:00:17.047Z,17.60
2018-02-10T19:02:43.522Z,18.53
2018-02-10T19:05:10.013Z,19.80
2018-02-10T19:07:36.398Z,19.97
2018-02-10T19:10:03.038Z,19.33
2018-02-10T19:12:30.246Z,19.53
2018-02-10T19:14:56.812Z,18.97
2018-02-10T19:17:23.799Z,17.70
2018-02-10T19:19:50.492Z,17.17
2018-02-10T19:22:17.078Z,16.60
2018-02-10T19:24:43.646Z,21.87
2018-02-10T19:27:11.135Z,27.70
2018-02-10T19:29:37.908Z,24.43
2018-02-10T19:32:08.182Z,22.77
2018-02-10T19:34:35.039Z,21.17
2018-02-10T19:37:01.705Z,19.23
2018-02-10T19:39:28.569Z,16.50
2018-02-10T19:41:55.106Z,17.73
2018-02-10T19:44:21.798Z,21.60
2018-02-10T19:46:48.217Z,17.23
2018-02-10T19:49:14.619Z,18.50
2018-02-10T19:51:41.032Z,18.73
2018-02-10T19:54:08.775Z,18.87
2018-02-10T19:56:36.448Z,15.83
2018-02-10T19:59:04.245Z,18.13
2018-02-10T20:01:30.933Z,18.23
2018-02-10T20:03:57.697Z,18.50
2018-02-10T20:06:24.071Z,19.23
2018-02-10T20:08:50.509Z,18.90
2018-02-10T20:11:16.917Z,18.83
2018-02-10T20:13:43.338Z,22.07
2018-02-10T20:16:09.784Z,20.43
2018-02-10T20:18:36.258Z,17.77
2018-02-10T20:21:02.686Z,17.50
2018-02-10T20:23:29.111Z,18.73
2018-02-10T20:25:55.602Z,17.50
2018-02-10T20:28:22.009Z,18.03
2018-02-10T20:30:48.406Z,16.70
2018-02-10T20:33:14.837Z,16.23
2018-02-10T20:35:41.342Z,16.43
2018-02-10T20:38:07.765Z,15.53
2018-02-10T20:40:34.142Z,17.57
2018-02-10T20:43:00.558Z,15.77
2018-02-10T20:45:27.016Z,15.07
2018-02-10T20:47:53.485Z,15.20
2018-02-10T20:50:19.873Z,13.60
2018-02-10T20:52:46.307Z,13.90
2018-02-10T20:55:12.725Z,13.17
2018-02-10T20:57:39.238Z,12.77
2018-02-10T21:00:05.732Z,10.50
2018-02-10T21:02:32.144Z,9.57
2018-02-10T21:04:58.540Z,10.87
2018-02-10T21:07:32.088Z,11.60
2018-02-10T21:09:58.423Z,11.00
2018-02-10T21:12:24.913Z,13.30
2018-02-10T21:14:51.370Z,12.83
2018-02-10T21:17:17.840Z,12.60
2018-02-10T21:19:44.248Z,9.90
2018-02-10T21:22:10.660Z,12.77
2018-02-10T21:24:37.108Z,12.93
2018-02-10T21:27:04.397Z,12.27
2018-02-10T21:29:30.793Z,10.73
2018-02-10T21:31:57.237Z,8.27
2018-02-10T21:34:23.740Z,8.87
2018-02-10T21:36:50.219Z,8.20
2018-02-10T21:39:16.651Z,7.80
2018-02-10T21:41:43.117Z,7.27
2018-02-10T21:44:09.509Z,8.03
2018-02-10T21:46:36.045Z,7.20
2018-02-10T21:49:02.493Z,6.67
2018-02-10T21:51:28.884Z,7.10
2018-02-10T21:53:55.330Z,7.80
2018-02-10T21:56:21.856Z,7.90
2018-02-10T21:58:48.234Z,9.07
2018-02-10T22:01:14.664Z,7.87
2018-02-10T22:03:41.112Z,8.57
2018-02-10T22:06:07.476Z,7.83
2018-02-10T22:08:33.892Z,8.47
2018-02-10T22:11:00.348Z,8.63
2018-02-10T22:13:26.693Z,8.77
2018-02-10T22:15:53.229Z,9.07
2018-02-10T22:18:19.628Z,7.70
2018-02-10T22:20:46.024Z,8.23
2018-02-10T22:23:12.464Z,9.73
2018-02-10T22:25:38.866Z,11.60
2018-02-10T22:28:05.253Z,11.07
2018-02-10T22:30:31.789Z,12.03
2018-02-10T22:32:58.240Z,12.97
2018-02-10T22:35:24.668Z,9.17
2018-02-10T22:37:51.178Z,8.50
2018-02-10T22:40:17.616Z,10.47
2018-02-10T22:42:44.035Z,9.53
2018-02-10T22:45:10.504Z,6.70
2018-02-10T22:47:36.924Z,9.13
2018-02-10T22:50:03.334Z,9.23
2018-02-10T22:52:29.808Z,7.97
2018-02-10T22:54:56.197Z,7.00
2018-02-10T22:57:22.568Z,5.13
2018-02-10T22:59:49.165Z,5.83
2018-02-10T23:02:15.576Z,7.10
2018-02-10T23:04:41.953Z,6.50
2018-02-10T23:07:08.448Z,6.40
2018-02-10T23:09:34.837Z,6.90
2018-02-10T23:12:01.219Z,7.90
2018-02-10T23:14:27.690Z,7.70
2018-02-10T23:16:54.088Z,11.87
2018-02-10T23:19:20.497Z,8.50
2018-02-10T23:21:46.933Z,7.77
2018-02-10T23:24:13.421Z,8.37
2018-02-10T23:26:39.824Z,6.80
2018-02-10T23:29:06.284Z,7.37
2018-02-10T23:31:32.649Z,7.60
2018-02-10T23:33:59.059Z,8.17
2018-02-10T23:36:25.531Z,7.60
2018-02-10T23:38:51.948Z,8.00
2018-02-10T23:41:18.358Z,6.83
2018-02-10T23:43:44.736Z,6.10
2018-02-10T23:46:11.117Z,5.83
2018-02-10T23:48:37.500Z,6.30
2018-02-10T23:51:04.105Z,5.90
2018-02-10T23:53:30.612Z,6.37
2018-02-10T23:55:57.052Z,5.80
2018-02-10T23:58:23.461Z,5.37
